Time,TemperatureF,DewpointF,PressureIn,WindDirection,WindDirectionDegrees,WindSpeedMPH,WindSpeedGustMPH,Humidity,HourlyPrecipIn,Conditions,Clouds,dailyrainin,SolarRadiationWatts/m^2,SoftwareType,DateUTC
2013-02-11 00:00:00,49.9,35.0,30.33,NW,311,4.0,-999.0,56,-99.99,,,0.00,0,weatherlink.com 1.10,2013-02-11 08:00:00,
2013-02-11 00:15:00,49.9,35.0,30.33,NW,311,0.0,-999.0,56,-99.99,,,0.00,0,weatherlink.com 1.10,2013-02-11 08:15:00,
2013-02-11 00:30:00,50.1,35.0,30.33,NW,311,6.0,-999.0,57,-99.99,,,0.00,0,weatherlink.com 1.10,2013-02-11 08:30:00,
2013-02-11 00:45:00,50.4,35.0,30.33,NW,309,6.0,-999.0,56,-99.99,,,0.00,0,weatherlink.com 1.10,2013-02-11 08:45:00,
2013-02-11 01:00:00,50.7,36.0,30.33,NW,306,7.0,-999.0,57,-99.99,,,0.00,0,weatherlink.com 1.10,2013-02-11 09:00:00,
2013-02-11 01:15:00,50.6,36.0,30.33,WNW,294,13.0,-999.0,57,-99.99,,,0.00,0,weatherlink.com 1.10,2013-02-11 09:15:00,
2013-02-11 01:30:00,50.6,36.0,30.33,WNW,292,2.0,-999.0,58,-99.99,,,0.00,0,weatherlink.com 1.10,2013-02-11 09:30:00,
2013-02-11 01:45:00,50.3,36.0,30.34,WNW,290,8.0,-999.0,58,-99.99,,,0.00,0,weatherlink.com 1.10,2013-02-11 09:45:00,
2013-02-11 02:00:00,50.5,35.0,30.34,WNW,297,2.0,-999.0,55,-99.99,,,0.00,0,weatherlink.com 1.10,2013-02-11 10:00:00,
2013-02-11 02:15:00,50.9,33.0,30.35,WNW,302,2.0,-999.0,51,-99.99,,,0.00,0,weatherlink.com 1.10,2013-02-11 10:15:00,
2013-02-11 02:30:00,51.3,32.0,30.35,NW,311,6.0,-999.0,48,-99.99,,,0.00,0,weatherlink.com 1.10,2013-02-11 10:30:00,
2013-02-11 02:45:00,50.8,32.0,30.35,NW,316,4.0,-999.0,49,-99.99,,,0.00,0,weatherlink.com 1.10,2013-02-11 10:45:00,
2013-02-11 03:00:00,50.3,31.0,30.34,NW,322,9.0,-999.0,48,-99.99,,,0.00,0,weatherlink.com 1.10,2013-02-11 11:00:00,
2013-02-11 03:15:00,50.3,32.0,30.34,WNW,300,5.0,-999.0,50,-99.99,,,0.00,0,weatherlink.com 1.10,2013-02-11 11:15:00,
2013-02-11 03:30:00,49.6,33.0,30.33,WNW,299,0.0,-999.0,54,-99.99,,,0.00,0,weatherlink.com 1.10,2013-02-11 11:30:00,
2013-02-11 03:45:00,49.5,33.0,30.33,WNW,299,0.0,-999.0,54,-99.99,,,0.00,0,weatherlink.com 1.10,2013-02-11 11:45:00,
2013-02-11 04:00:00,49.4,33.0,30.33,WNW,299,0.0,-999.0,54,-99.99,,,0.00,0,weatherlink.com 1.10,2013-02-11 12:00:00,
2013-02-11 04:15:00,49.1,34.0,30.33,WNW,299,0.0,-999.0,56,-99.99,,,0.00,0,weatherlink.com 1.10,2013-02-11 12:15:00,
2013-02-11 04:30:00,49.0,34.0,30.33,WNW,299,0.0,-999.0,57,-99.99,,,0.00,0,weatherlink.com 1.10,2013-02-11 12:30:00,
2013-02-11 04:45:00,48.9,34.0,30.34,WNW,299,0.0,-999.0,58,-99.99,,,0.00,0,weatherlink.com 1.10,2013-02-11 12:45:00,
2013-02-11 05:00:00,48.8,35.0,30.34,WNW,299,0.0,-999.0,59,-99.99,,,0.00,0,weatherlink.com 1.10,2013-02-11 13:00:00,
2013-02-11 05:15:00,49.0,35.0,30.35,WNW,299,2.0,-999.0,59,-99.99,,,0.00,0,weatherlink.com 1.10,2013-02-11 13:15:00,
2013-02-11 05:30:00,49.2,35.0,30.36,WNW,299,0.0,-999.0,59,-99.99,,,0.00,0,weatherlink.com 1.10,2013-02-11 13:30:00,
2013-02-11 05:45:00,49.4,35.0,30.36,WNW,299,0.0,-999.0,58,-99.99,,,0.00,0,weatherlink.com 1.10,2013-02-11 13:45:00,
2013-02-11 06:00:00,48.9,35.0,30.37,WNW,299,0.0,-999.0,60,-99.99,,,0.00,0,weatherlink.com 1.10,2013-02-11 14:00:00,
2013-02-11 06:15:00,48.3,35.0,30.37,WNW,299,0.0,-999.0,61,-99.99,,,0.00,0,weatherlink.com 1.10,2013-02-11 14:15:00,
2013-02-11 06:30:00,47.9,36.0,30.38,WNW,299,2.0,-999.0,63,-99.99,,,0.00,0,weatherlink.com 1.10,2013-02-11 14:30:00,
2013-02-11 06:46:00,47.6,35.0,30.38,WNW,299,0.0,-999.0,63,-99.99,,,0.00,11,weatherlink.com 1.10,2013-02-11 14:46:00,
2013-02-11 07:01:00,48.2,35.0,30.39,WNW,299,5.0,-999.0,60,-99.99,,,0.00,32,weatherlink.com 1.10,2013-02-11 15:01:00,
2013-02-11 07:16:00,48.7,35.0,30.40,WNW,298,0.0,-999.0,59,-99.99,,,0.00,72,weatherlink.com 1.10,2013-02-11 15:16:00,
2013-02-11 07:31:00,49.7,33.0,30.40,WNW,298,0.0,-999.0,52,-99.99,,,0.00,127,weatherlink.com 1.10,2013-02-11 15:31:00,
2013-02-11 07:46:00,51.0,31.0,30.41,WNW,298,0.0,-999.0,46,-99.99,,,0.00,186,weatherlink.com 1.10,2013-02-11 15:46:00,
2013-02-11 08:01:00,53.1,26.0,30.42,NW,320,4.0,-999.0,35,-99.99,,,0.00,244,weatherlink.com 1.10,2013-02-11 16:01:00,
2013-02-11 08:16:00,54.4,25.0,30.42,NNW,340,8.0,-999.0,32,-99.99,,,0.00,295,weatherlink.com 1.10,2013-02-11 16:16:00,
2013-02-11 08:31:00,55.1,25.0,30.42,NNE,22,4.0,-999.0,31,-99.99,,,0.00,343,weatherlink.com 1.10,2013-02-11 16:31:00,
2013-02-11 08:46:00,55.9,25.0,30.43,NNW,342,0.0,-999.0,30,-99.99,,,0.00,385,weatherlink.com 1.10,2013-02-11 16:46:00,
2013-02-11 09:01:00,56.6,26.0,30.44,NNW,329,0.0,-999.0,31,-99.99,,,0.00,427,weatherlink.com 1.10,2013-02-11 17:01:00,
2013-02-11 09:16:00,57.4,25.0,30.44,NNW,341,8.0,-999.0,29,-99.99,,,0.00,473,weatherlink.com 1.10,2013-02-11 17:16:00,
2013-02-11 09:31:00,57.5,26.0,30.44,NNW,336,1.0,-999.0,30,-99.99,,,0.00,77,weatherlink.com 1.10,2013-02-11 17:31:00,
2013-02-11 09:46:00,57.6,25.0,30.44,NNW,341,5.0,-999.0,29,-99.99,,,0.00,552,weatherlink.com 1.10,2013-02-11 17:46:00,
2013-02-11 10:01:00,58.0,27.0,30.45,NNW,329,2.0,-999.0,30,-99.99,,,0.00,577,weatherlink.com 1.10,2013-02-11 18:01:00,
2013-02-11 10:16:00,58.6,26.0,30.46,NNW,340,9.0,-999.0,29,-99.99,,,0.00,603,weatherlink.com 1.10,2013-02-11 18:16:00,
2013-02-11 10:32:00,58.6,26.0,30.46,NNW,345,9.0,-999.0,29,-99.99,,,0.00,622,weatherlink.com 1.10,2013-02-11 18:32:00,
2013-02-11 10:47:00,59.0,27.0,30.46,NNE,21,1.0,-999.0,29,-99.99,,,0.00,642,weatherlink.com 1.10,2013-02-11 18:47:00,
2013-02-11 11:02:00,59.3,25.0,30.45,NNE,24,0.0,-999.0,27,-99.99,,,0.00,663,weatherlink.com 1.10,2013-02-11 19:02:00,
2013-02-11 11:17:00,60.2,26.0,30.45,NNW,347,7.0,-999.0,27,-99.99,,,0.00,668,weatherlink.com 1.10,2013-02-11 19:17:00,
2013-02-11 11:32:00,60.2,25.0,30.45,NW,322,2.0,-999.0,26,-99.99,,,0.00,679,weatherlink.com 1.10,2013-02-11 19:32:00,
2013-02-11 11:47:00,61.1,24.0,30.44,North,355,4.0,-999.0,24,-99.99,,,0.00,687,weatherlink.com 1.10,2013-02-11 19:47:00,
2013-02-11 12:02:00,60.9,23.0,30.43,North,350,0.0,-999.0,23,-99.99,,,0.00,687,weatherlink.com 1.10,2013-02-11 20:02:00,
2013-02-11 12:17:00,61.0,23.0,30.42,NW,326,6.0,-999.0,23,-99.99,,,0.00,687,weatherlink.com 1.10,2013-02-11 20:17:00,
2013-02-11 12:32:00,60.9,22.0,30.43,North,360,2.0,-999.0,22,-99.99,,,0.00,677,weatherlink.com 1.10,2013-02-11 20:32:00,
2013-02-11 12:47:00,60.9,22.0,30.42,North,355,8.0,-999.0,22,-99.99,,,0.00,663,weatherlink.com 1.10,2013-02-11 20:47:00,
2013-02-11 13:02:00,61.8,20.0,30.41,NNW,341,7.0,-999.0,20,-99.99,,,0.00,650,weatherlink.com 1.10,2013-02-11 21:02:00,
2013-02-11 13:17:00,61.6,19.0,30.41,NNE,13,6.0,-999.0,19,-99.99,,,0.00,629,weatherlink.com 1.10,2013-02-11 21:17:00,
2013-02-11 13:32:00,61.7,19.0,30.41,NNW,331,1.0,-999.0,19,-99.99,,,0.00,608,weatherlink.com 1.10,2013-02-11 21:32:00,
2013-02-11 13:47:00,61.8,18.0,30.41,North,350,16.0,-999.0,18,-99.99,,,0.00,584,weatherlink.com 1.10,2013-02-11 21:47:00,
2013-02-11 14:02:00,62.2,18.0,30.41,NE,38,6.0,-999.0,18,-99.99,,,0.00,550,weatherlink.com 1.10,2013-02-11 22:02:00,
2013-02-11 14:17:00,62.5,17.0,30.40,North,349,2.0,-999.0,17,-99.99,,,0.00,519,weatherlink.com 1.10,2013-02-11 22:17:00,
2013-02-11 14:32:00,62.5,17.0,30.41,North,351,7.0,-999.0,17,-99.99,,,0.00,483,weatherlink.com 1.10,2013-02-11 22:32:00,
2013-02-11 14:47:00,62.1,18.0,30.41,NNW,347,10.0,-999.0,18,-99.99,,,0.00,448,weatherlink.com 1.10,2013-02-11 22:47:00,
2013-02-11 15:02:00,62.0,15.0,30.41,NNE,18,9.0,-999.0,16,-99.99,,,0.00,408,weatherlink.com 1.10,2013-02-11 23:02:00,
2013-02-11 15:17:00,62.1,15.0,30.41,NNE,22,1.0,-999.0,16,-99.99,,,0.00,362,weatherlink.com 1.10,2013-02-11 23:17:00,
2013-02-11 15:32:00,61.6,13.0,30.41,NE,38,10.0,-999.0,15,-99.99,,,0.00,313,weatherlink.com 1.10,2013-02-11 23:32:00,
2013-02-11 15:47:00,61.6,13.0,30.41,NNE,18,10.0,-999.0,15,-99.99,,,0.00,267,weatherlink.com 1.10,2013-02-11 23:47:00,
2013-02-11 16:02:00,61.5,13.0,30.42,NNE,19,5.0,-999.0,15,-99.99,,,0.00,214,weatherlink.com 1.10,2013-02-12 00:02:00,
2013-02-11 16:17:00,61.1,11.0,30.42,NNE,17,5.0,-999.0,14,-99.99,,,0.00,158,weatherlink.com 1.10,2013-02-12 00:17:00,
2013-02-11 16:32:00,60.9,13.0,30.43,NNE,21,4.0,-999.0,15,-99.99,,,0.00,102,weatherlink.com 1.10,2013-02-12 00:32:00,
2013-02-11 16:47:00,60.3,12.0,30.43,NE,40,4.0,-999.0,15,-99.99,,,0.00,54,weatherlink.com 1.10,2013-02-12 00:47:00,
2013-02-11 17:02:00,59.6,12.0,30.44,NNE,28,4.0,-999.0,15,-99.99,,,0.00,16,weatherlink.com 1.10,2013-02-12 01:02:00,
2013-02-11 17:17:00,59.0,11.0,30.43,NE,52,7.0,-999.0,15,-99.99,,,0.00,9,weatherlink.com 1.10,2013-02-12 01:17:00,
2013-02-11 17:32:00,58.1,12.0,30.44,NE,53,5.0,-999.0,16,-99.99,,,0.00,0,weatherlink.com 1.10,2013-02-12 01:32:00,
2013-02-11 17:47:00,57.7,12.0,30.45,NNE,30,6.0,-999.0,16,-99.99,,,0.00,0,weatherlink.com 1.10,2013-02-12 01:47:00,
2013-02-11 18:02:00,57.5,13.0,30.46,NNE,24,4.0,-999.0,17,-99.99,,,0.00,0,weatherlink.com 1.10,2013-02-12 02:02:00,
2013-02-11 18:17:00,57.0,12.0,30.47,NE,47,1.0,-999.0,17,-99.99,,,0.00,0,weatherlink.com 1.10,2013-02-12 02:17:00,
2013-02-11 18:32:00,56.5,12.0,30.47,NE,35,1.0,-999.0,17,-99.99,,,0.00,0,weatherlink.com 1.10,2013-02-12 02:32:00,
2013-02-11 18:47:00,55.9,13.0,30.48,NE,43,0.0,-999.0,18,-99.99,,,0.00,0,weatherlink.com 1.10,2013-02-12 02:47:00,
2013-02-11 19:02:00,55.1,13.0,30.49,NE,40,0.0,-999.0,19,-99.99,,,0.00,0,weatherlink.com 1.10,2013-02-12 03:02:00,
2013-02-11 19:17:00,53.7,18.0,30.49,NE,40,0.0,-999.0,24,-99.99,,,0.00,0,weatherlink.com 1.10,2013-02-12 03:17:00,
2013-02-11 19:32:00,52.3,17.0,30.49,NE,40,0.0,-999.0,25,-99.99,,,0.00,0,weatherlink.com 1.10,2013-02-12 03:32:00,
2013-02-11 19:47:00,51.5,19.0,30.50,NE,40,0.0,-999.0,28,-99.99,,,0.00,0,weatherlink.com 1.10,2013-02-12 03:47:00,
2013-02-11 20:02:00,50.9,18.0,30.50,NE,40,0.0,-999.0,27,-99.99,,,0.00,0,weatherlink.com 1.10,2013-02-12 04:02:00,
2013-02-11 20:17:00,51.4,15.0,30.50,NE,40,0.0,-999.0,23,-99.99,,,0.00,0,weatherlink.com 1.10,2013-02-12 04:17:00,
2013-02-11 20:32:00,52.6,13.0,30.51,North,360,3.0,-999.0,21,-99.99,,,0.00,0,weatherlink.com 1.10,2013-02-12 04:32:00,
2013-02-11 20:47:00,52.6,13.0,30.51,NNW,334,4.0,-999.0,21,-99.99,,,0.00,0,weatherlink.com 1.10,2013-02-12 04:47:00,
2013-02-11 21:02:00,52.5,15.0,30.51,NNW,331,0.0,-999.0,23,-99.99,,,0.00,0,weatherlink.com 1.10,2013-02-12 05:02:00,
2013-02-11 21:17:00,51.1,18.0,30.52,NNW,331,0.0,-999.0,27,-99.99,,,0.00,0,weatherlink.com 1.10,2013-02-12 05:17:00,
2013-02-11 21:33:00,49.4,19.0,30.52,NNW,331,0.0,-999.0,30,-99.99,,,0.00,0,weatherlink.com 1.10,2013-02-12 05:33:00,
2013-02-11 21:48:00,48.5,20.0,30.52,NNW,331,0.0,-999.0,32,-99.99,,,0.00,0,weatherlink.com 1.10,2013-02-12 05:48:00,
2013-02-11 22:03:00,47.8,21.0,30.53,NNW,331,0.0,-999.0,34,-99.99,,,0.00,0,weatherlink.com 1.10,2013-02-12 06:03:00,
2013-02-11 22:18:00,47.6,18.0,30.53,NNW,331,0.0,-999.0,31,-99.99,,,0.00,0,weatherlink.com 1.10,2013-02-12 06:18:00,
2013-02-11 22:33:00,48.1,19.0,30.53,NNW,331,0.0,-999.0,31,-99.99,,,0.00,0,weatherlink.com 1.10,2013-02-12 06:33:00,
2013-02-11 22:48:00,48.0,21.0,30.53,NNW,331,0.0,-999.0,34,-99.99,,,0.00,0,weatherlink.com 1.10,2013-02-12 06:48:00,
2013-02-11 23:03:00,47.3,21.0,30.53,NNW,331,0.0,-999.0,36,-99.99,,,0.00,0,weatherlink.com 1.10,2013-02-12 07:03:00,
2013-02-11 23:18:00,45.2,20.0,30.54,NNW,331,0.0,-999.0,36,-99.99,,,0.00,0,weatherlink.com 1.10,2013-02-12 07:18:00,
2013-02-11 23:33:00,44.7,19.0,30.54,NNW,331,0.0,-999.0,36,-99.99,,,0.00,0,weatherlink.com 1.10,2013-02-12 07:33:00,
2013-02-11 23:48:00,44.5,20.0,30.55,NNW,331,0.0,-999.0,37,-99.99,,,0.00,0,weatherlink.com 1.10,2013-02-12 07:48:00,